sensor_id;sensor_type;location;lat;lon;timestamp;pressure;altitude;pressure_sealevel;temperature;humidity
47726;BME280;33483;48.294;16.388;2022-07-15T00:00:09;99445.41;;;19.97;92.07
47726;BME280;33483;48.294;16.388;2022-07-15T00:03:01;99461.88;;;19.81;92.56
47726;BME280;33483;48.294;16.388;2022-07-15T00:05:28;99463.66;;;19.77;95.52
47726;BME280;33483;48.294;16.388;2022-07-15T00:07:56;99458.94;;;19.70;95.80
47726;BME280;33483;48.294;16.388;2022-07-15T00:10:25;99426.81;;;19.73;94.86
47726;BME280;33483;48.294;16.388;2022-07-15T00:12:55;99439.81;;;19.68;94.99
47726;BME280;33483;48.294;16.388;2022-07-15T00:15:28;99467.94;;;19.68;94.94
47726;BME280;33483;48.294;16.388;2022-07-15T00:17:56;99475.94;;;19.72;94.42
47726;BME280;33483;48.294;16.388;2022-07-15T00:20:29;99471.06;;;19.63;95.01
47726;BME280;33483;48.294;16.388;2022-07-15T00:23:02;99463.22;;;19.61;98.09
47726;BME280;33483;48.294;16.388;2022-07-15T00:25:32;99466.03;;;19.61;99.25
47726;BME280;33483;48.294;16.388;2022-07-15T00:28:02;99464.09;;;19.64;99.94
47726;BME280;33483;48.294;16.388;2022-07-15T00:30:31;99484.97;;;19.70;100.00
47726;BME280;33483;48.294;16.388;2022-07-15T00:33:01;99516.19;;;19.74;100.00
47726;BME280;33483;48.294;16.388;2022-07-15T00:35:29;99555.72;;;19.76;100.00
47726;BME280;33483;48.294;16.388;2022-07-15T00:37:57;99576.00;;;19.84;100.00
47726;BME280;33483;48.294;16.388;2022-07-15T00:40:25;99585.34;;;19.87;100.00
47726;BME280;33483;48.294;16.388;2022-07-15T00:42:52;99591.25;;;19.81;100.00
47726;BME280;33483;48.294;16.388;2022-07-15T00:45:22;99603.66;;;19.59;100.00
47726;BME280;33483;48.294;16.388;2022-07-15T00:47:55;99614.25;;;19.42;100.00
47726;BME280;33483;48.294;16.388;2022-07-15T00:50:25;99597.00;;;19.19;100.00
47726;BME280;33483;48.294;16.388;2022-07-15T00:53:13;99570.88;;;18.99;100.00
47726;BME280;33483;48.294;16.388;2022-07-15T00:55:46;99548.06;;;18.85;100.00
47726;BME280;33483;48.294;16.388;2022-07-15T00:58:16;99489.50;;;18.72;100.00
47726;BME280;33483;48.294;16.388;2022-07-15T01:00:45;99489.31;;;18.61;100.00
47726;BME280;33483;48.294;16.388;2022-07-15T01:03:17;99495.78;;;18.54;100.00
47726;BME280;33483;48.294;16.388;2022-07-15T01:05:46;99488.78;;;18.45;100.00
47726;BME280;33483;48.294;16.388;2022-07-15T01:08:14;99472.63;;;18.36;100.00
47726;BME280;33483;48.294;16.388;2022-07-15T01:10:42;99467.44;;;18.33;100.00
47726;BME280;33483;48.294;16.388;2022-07-15T01:13:09;99479.81;;;18.30;100.00
47726;BME280;33483;48.294;16.388;2022-07-15T01:15:37;99497.66;;;18.25;100.00
47726;BME280;33483;48.294;16.388;2022-07-15T01:18:04;99502.94;;;18.21;100.00
47726;BME280;33483;48.294;16.388;2022-07-15T01:20:41;99528.78;;;18.19;100.00
47726;BME280;33483;48.294;16.388;2022-07-15T01:23:09;99542.91;;;18.12;100.00
47726;BME280;33483;48.294;16.388;2022-07-15T01:25:43;99540.19;;;18.04;100.00
47726;BME280;33483;48.294;16.388;2022-07-15T01:28:14;99539.69;;;17.98;100.00
47726;BME280;33483;48.294;16.388;2022-07-15T01:30:41;99555.06;;;17.97;100.00
47726;BME280;33483;48.294;16.388;2022-07-15T01:33:12;99551.66;;;17.98;100.00
47726;BME280;33483;48.294;16.388;2022-07-15T01:35:41;99556.78;;;17.92;100.00
47726;BME280;33483;48.294;16.388;2022-07-15T01:38:09;99534.75;;;17.89;100.00
47726;BME280;33483;48.294;16.388;2022-07-15T01:40:36;99525.28;;;17.84;100.00
47726;BME280;33483;48.294;16.388;2022-07-15T01:43:05;99526.28;;;17.79;100.00
47726;BME280;33483;48.294;16.388;2022-07-15T01:45:32;99531.38;;;17.73;100.00
47726;BME280;33483;48.294;16.388;2022-07-15T01:47:59;99534.28;;;17.66;100.00
47726;BME280;33483;48.294;16.388;2022-07-15T01:50:46;99542.94;;;17.60;100.00
47726;BME280;33483;48.294;16.388;2022-07-15T01:53:19;99548.38;;;17.58;100.00
47726;BME280;33483;48.294;16.388;2022-07-15T01:55:48;99570.44;;;17.54;100.00
47726;BME280;33483;48.294;16.388;2022-07-15T01:58:18;99588.63;;;17.46;100.00
47726;BME280;33483;48.294;16.388;2022-07-15T02:00:48;99597.25;;;17.40;100.00
47726;BME280;33483;48.294;16.388;2022-07-15T02:03:18;99573.22;;;17.37;100.00
47726;BME280;33483;48.294;16.388;2022-07-15T02:05:46;99599.75;;;17.36;100.00
47726;BME280;33483;48.294;16.388;2022-07-15T02:08:14;99594.69;;;17.35;100.00
47726;BME280;33483;48.294;16.388;2022-07-15T02:10:43;99604.25;;;17.32;100.00
47726;BME280;33483;48.294;16.388;2022-07-15T02:13:16;99609.19;;;17.24;100.00
47726;BME280;33483;48.294;16.388;2022-07-15T02:15:48;99601.19;;;17.20;100.00
47726;BME280;33483;48.294;16.388;2022-07-15T02:18:16;99593.97;;;17.10;100.00
47726;BME280;33483;48.294;16.388;2022-07-15T02:20:43;99574.59;;;17.04;100.00
47726;BME280;33483;48.294;16.388;2022-07-15T02:23:13;99576.47;;;17.02;100.00
47726;BME280;33483;48.294;16.388;2022-07-15T02:25:40;99599.44;;;17.00;100.00
47726;BME280;33483;48.294;16.388;2022-07-15T02:28:09;99582.88;;;16.95;100.00
47726;BME280;33483;48.294;16.388;2022-07-15T02:30:38;99574.91;;;16.91;100.00
47726;BME280;33483;48.294;16.388;2022-07-15T02:33:07;99596.38;;;16.88;100.00
47726;BME280;33483;48.294;16.388;2022-07-15T02:35:35;99607.56;;;16.88;100.00
47726;BME280;33483;48.294;16.388;2022-07-15T02:38:05;99618.59;;;16.86;100.00
47726;BME280;33483;48.294;16.388;2022-07-15T02:40:34;99621.97;;;16.85;100.00
47726;BME280;33483;48.294;16.388;2022-07-15T02:43:10;99625.34;;;16.83;100.00
47726;BME280;33483;48.294;16.388;2022-07-15T02:45:38;99612.09;;;16.84;100.00
47726;BME280;33483;48.294;16.388;2022-07-15T02:48:08;99611.91;;;16.82;100.00
47726;BME280;33483;48.294;16.388;2022-07-15T02:50:43;99610.41;;;16.81;100.00
47726;BME280;33483;48.294;16.388;2022-07-15T02:53:14;99624.06;;;16.77;100.00
47726;BME280;33483;48.294;16.388;2022-07-15T02:55:42;99626.69;;;16.75;100.00
47726;BME280;33483;48.294;16.388;2022-07-15T02:58:12;99626.88;;;16.77;100.00
47726;BME280;33483;48.294;16.388;2022-07-15T03:00:40;99625.38;;;16.76;100.00
47726;BME280;33483;48.294;16.388;2022-07-15T03:03:08;99629.50;;;16.75;100.00
47726;BME280;33483;48.294;16.388;2022-07-15T03:05:39;99630.78;;;16.74;100.00
47726;BME280;33483;48.294;16.388;2022-07-15T03:08:09;99609.91;;;16.75;100.00
47726;BME280;33483;48.294;16.388;2022-07-15T03:10:38;99617.53;;;16.74;100.00
47726;BME280;33483;48.294;16.388;2022-07-15T03:13:06;99611.19;;;16.74;100.00
47726;BME280;33483;48.294;16.388;2022-07-15T03:15:34;99601.69;;;16.77;100.00
47726;BME280;33483;48.294;16.388;2022-07-15T03:18:01;99617.53;;;16.74;100.00
47726;BME280;33483;48.294;16.388;2022-07-15T03:20:31;99616.06;;;16.73;100.00
47726;BME280;33483;48.294;16.388;2022-07-15T03:22:59;99615.66;;;16.77;100.00
47726;BME280;33483;48.294;16.388;2022-07-15T03:25:27;99616.00;;;16.81;100.00
47726;BME280;33483;48.294;16.388;2022-07-15T03:27:59;99615.78;;;16.86;100.00
47726;BME280;33483;48.294;16.388;2022-07-15T03:30:31;99612.59;;;16.90;100.00
47726;BME280;33483;48.294;16.388;2022-07-15T03:32:58;99614.41;;;16.95;100.00
47726;BME280;33483;48.294;16.388;2022-07-15T03:35:25;99607.66;;;16.98;100.00
47726;BME280;33483;48.294;16.388;2022-07-15T03:37:52;99607.28;;;17.02;100.00
47726;BME280;33483;48.294;16.388;2022-07-15T03:40:19;99613.97;;;17.06;100.00
47726;BME280;33483;48.294;16.388;2022-07-15T03:42:47;99616.56;;;17.12;100.00
47726;BME280;33483;48.294;16.388;2022-07-15T03:45:14;99631.41;;;17.22;100.00
47726;BME280;33483;48.294;16.388;2022-07-15T03:47:43;99635.19;;;17.66;100.00
47726;BME280;33483;48.294;16.388;2022-07-15T03:50:13;99631.41;;;17.88;100.00
47726;BME280;33483;48.294;16.388;2022-07-15T03:52:43;99640.50;;;18.47;100.00
47726;BME280;33483;48.294;16.388;2022-07-15T03:55:10;99643.66;;;19.04;100.00
47726;BME280;33483;48.294;16.388;2022-07-15T03:57:38;99646.50;;;19.41;100.00
47726;BME280;33483;48.294;16.388;2022-07-15T04:00:10;99652.38;;;19.71;100.00
47726;BME280;33483;48.294;16.388;2022-07-15T04:02:43;99661.16;;;20.04;100.00
47726;BME280;33483;48.294;16.388;2022-07-15T04:05:14;99664.59;;;20.22;100.00
47726;BME280;33483;48.294;16.388;2022-07-15T04:07:41;99656.72;;;20.01;100.00
47726;BME280;33483;48.294;16.388;2022-07-15T04:10:09;99660.16;;;20.19;100.00
47726;BME280;33483;48.294;16.388;2022-07-15T04:12:36;99661.28;;;19.87;100.00
47726;BME280;33483;48.294;16.388;2022-07-15T04:15:10;99651.81;;;19.10;100.00
47726;BME280;33483;48.294;16.388;2022-07-15T04:17:38;99649.50;;;18.89;100.00
47726;BME280;33483;48.294;16.388;2022-07-15T04:20:05;99652.63;;;18.67;100.00
47726;BME280;33483;48.294;16.388;2022-07-15T04:22:42;99657.41;;;18.40;100.00
47726;BME280;33483;48.294;16.388;2022-07-15T04:25:14;99654.44;;;18.21;100.00
47726;BME280;33483;48.294;16.388;2022-07-15T04:27:43;99656.09;;;18.07;100.00
47726;BME280;33483;48.294;16.388;2022-07-15T04:30:11;99648.50;;;18.17;100.00
47726;BME280;33483;48.294;16.388;2022-07-15T04:32:47;99654.19;;;18.09;100.00
47726;BME280;33483;48.294;16.388;2022-07-15T04:35:14;99655.69;;;18.10;100.00
47726;BME280;33483;48.294;16.388;2022-07-15T04:37:42;99651.16;;;18.15;100.00
47726;BME280;33483;48.294;16.388;2022-07-15T04:40:10;99650.97;;;17.95;100.00
47726;BME280;33483;48.294;16.388;2022-07-15T04:42:41;99644.69;;;17.87;100.00
47726;BME280;33483;48.294;16.388;2022-07-15T04:45:14;99657.41;;;17.88;100.00
47726;BME280;33483;48.294;16.388;2022-07-15T04:47:41;99647.19;;;18.01;100.00
47726;BME280;33483;48.294;16.388;2022-07-15T04:50:12;99666.66;;;17.98;100.00
47726;BME280;33483;48.294;16.388;2022-07-15T04:52:59;99670.69;;;18.05;100.00
47726;BME280;33483;48.294;16.388;2022-07-15T04:55:26;99666.41;;;18.04;100.00
47726;BME280;33483;48.294;16.388;2022-07-15T04:58:02;99679.34;;;18.17;100.00
47726;BME280;33483;48.294;16.388;2022-07-15T05:00:29;99676.31;;;18.22;100.00
47726;BME280;33483;48.294;16.388;2022-07-15T05:02:56;99679.19;;;18.66;100.00
47726;BME280;33483;48.294;16.388;2022-07-15T05:05:26;99694.03;;;18.76;100.00
47726;BME280;33483;48.294;16.388;2022-07-15T05:07:54;99700.63;;;18.88;100.00
47726;BME280;33483;48.294;16.388;2022-07-15T05:10:22;99701.84;;;19.93;100.00
47726;BME280;33483;48.294;16.388;2022-07-15T05:13:02;99712.00;;;20.35;100.00
47726;BME280;33483;48.294;16.388;2022-07-15T05:15:32;99716.63;;;19.75;100.00
47726;BME280;33483;48.294;16.388;2022-07-15T05:18:33;99709.94;;;19.34;100.00
47726;BME280;33483;48.294;16.388;2022-07-15T05:21:01;99715.28;;;19.76;100.00
47726;BME280;33483;48.294;16.388;2022-07-15T05:23:34;99706.81;;;20.22;100.00
47726;BME280;33483;48.294;16.388;2022-07-15T05:26:05;99720.16;;;20.78;100.00
47726;BME280;33483;48.294;16.388;2022-07-15T05:28:35;99717.81;;;21.74;100.00
47726;BME280;33483;48.294;16.388;2022-07-15T05:31:04;99728.13;;;22.43;100.00
47726;BME280;33483;48.294;16.388;2022-07-15T05:33:31;99722.66;;;23.10;100.00
47726;BME280;33483;48.294;16.388;2022-07-15T05:35:58;99737.41;;;22.33;100.00
47726;BME280;33483;48.294;16.388;2022-07-15T05:38:29;99734.66;;;21.22;100.00
47726;BME280;33483;48.294;16.388;2022-07-15T05:41:01;99737.38;;;20.44;100.00
47726;BME280;33483;48.294;16.388;2022-07-15T05:43:28;99734.81;;;20.20;100.00
47726;BME280;33483;48.294;16.388;2022-07-15T05:45:57;99748.66;;;20.54;100.00
47726;BME280;33483;48.294;16.388;2022-07-15T05:48:28;99748.75;;;20.37;100.00
47726;BME280;33483;48.294;16.388;2022-07-15T05:50:57;99749.13;;;20.04;100.00
47726;BME280;33483;48.294;16.388;2022-07-15T05:53:25;99759.63;;;19.94;100.00
47726;BME280;33483;48.294;16.388;2022-07-15T05:55:52;99755.75;;;19.90;100.00
47726;BME280;33483;48.294;16.388;2022-07-15T05:58:22;99757.06;;;19.89;100.00
47726;BME280;33483;48.294;16.388;2022-07-15T06:00:52;99773.97;;;19.98;100.00
47726;BME280;33483;48.294;16.388;2022-07-15T06:03:22;99769.53;;;19.95;100.00
47726;BME280;33483;48.294;16.388;2022-07-15T06:05:50;99775.47;;;19.99;100.00
47726;BME280;33483;48.294;16.388;2022-07-15T06:08:19;99763.84;;;19.86;100.00
47726;BME280;33483;48.294;16.388;2022-07-15T06:10:46;99763.44;;;19.89;100.00
47726;BME280;33483;48.294;16.388;2022-07-15T06:13:16;99774.53;;;20.33;100.00
47726;BME280;33483;48.294;16.388;2022-07-15T06:15:46;99776.81;;;20.08;100.00
47726;BME280;33483;48.294;16.388;2022-07-15T06:18:19;99776.16;;;20.17;100.00
47726;BME280;33483;48.294;16.388;2022-07-15T06:20:48;99770.94;;;19.77;100.00
47726;BME280;33483;48.294;16.388;2022-07-15T06:23:15;99773.50;;;19.56;100.00
47726;BME280;33483;48.294;16.388;2022-07-15T06:25:45;99770.84;;;19.58;100.00
47726;BME280;33483;48.294;16.388;2022-07-15T06:28:15;99766.59;;;20.03;100.00
47726;BME280;33483;48.294;16.388;2022-07-15T06:30:44;99771.28;;;20.37;100.00
47726;BME280;33483;48.294;16.388;2022-07-15T06:33:11;99774.97;;;20.20;100.00
47726;BME280;33483;48.294;16.388;2022-07-15T06:35:38;99771.75;;;19.97;100.00
47726;BME280;33483;48.294;16.388;2022-07-15T06:38:11;99779.84;;;19.83;100.00
47726;BME280;33483;48.294;16.388;2022-07-15T06:40:41;99788.81;;;19.72;100.00
47726;BME280;33483;48.294;16.388;2022-07-15T06:43:08;99789.09;;;19.67;100.00
47726;BME280;33483;48.294;16.388;2022-07-15T06:46:08;99802.34;;;19.83;100.00
47726;BME280;33483;48.294;16.388;2022-07-15T06:48:37;99803.94;;;20.13;100.00
47726;BME280;33483;48.294;16.388;2022-07-15T06:51:06;99814.38;;;20.30;100.00
47726;BME280;33483;48.294;16.388;2022-07-15T06:53:34;99806.91;;;20.89;97.45
47726;BME280;33483;48.294;16.388;2022-07-15T06:56:01;99814.97;;;21.71;93.12
47726;BME280;33483;48.294;16.388;2022-07-15T06:58:28;99821.47;;;23.08;88.56
47726;BME280;33483;48.294;16.388;2022-07-15T07:00:58;99817.09;;;23.49;61.30
47726;BME280;33483;48.294;16.388;2022-07-15T07:03:30;99826.41;;;24.30;54.35
47726;BME280;33483;48.294;16.388;2022-07-15T07:06:18;99838.19;;;25.46;50.90
47726;BME280;33483;48.294;16.388;2022-07-15T07:08:45;99843.38;;;25.89;48.85
47726;BME280;33483;48.294;16.388;2022-07-15T07:11:16;99845.75;;;26.60;46.78
47726;BME280;33483;48.294;16.388;2022-07-15T07:13:48;99848.88;;;26.12;46.31
47726;BME280;33483;48.294;16.388;2022-07-15T07:16:16;99845.31;;;26.38;45.70
47726;BME280;33483;48.294;16.388;2022-07-15T07:18:43;99852.06;;;26.45;44.87
47726;BME280;33483;48.294;16.388;2022-07-15T07:21:14;99854.97;;;27.01;43.59
47726;BME280;33483;48.294;16.388;2022-07-15T07:23:42;99855.19;;;27.63;42.84
47726;BME280;33483;48.294;16.388;2022-07-15T07:26:10;99863.44;;;28.18;40.97
47726;BME280;33483;48.294;16.388;2022-07-15T07:28:38;99869.53;;;28.10;40.15
47726;BME280;33483;48.294;16.388;2022-07-15T07:31:11;99868.22;;;27.98;39.93
47726;BME280;33483;48.294;16.388;2022-07-15T07:33:42;99874.38;;;27.92;38.24
47726;BME280;33483;48.294;16.388;2022-07-15T07:36:09;99877.91;;;27.77;38.31
47726;BME280;33483;48.294;16.388;2022-07-15T07:38:36;99876.56;;;28.89;37.13
47726;BME280;33483;48.294;16.388;2022-07-15T07:41:04;99872.59;;;29.29;35.85
47726;BME280;33483;48.294;16.388;2022-07-15T07:43:32;99867.44;;;29.61;34.88
47726;BME280;33483;48.294;16.388;2022-07-15T07:45:59;99871.22;;;30.03;33.79
47726;BME280;33483;48.294;16.388;2022-07-15T07:48:32;99871.53;;;29.56;33.43
47726;BME280;33483;48.294;16.388;2022-07-15T07:50:59;99871.09;;;29.11;33.38
47726;BME280;33483;48.294;16.388;2022-07-15T07:53:29;99869.34;;;29.04;34.40
47726;BME280;33483;48.294;16.388;2022-07-15T07:55:58;99867.53;;;29.80;33.83
47726;BME280;33483;48.294;16.388;2022-07-15T07:58:25;99871.53;;;29.73;32.86
47726;BME280;33483;48.294;16.388;2022-07-15T08:00:53;99867.22;;;29.37;31.24
47726;BME280;33483;48.294;16.388;2022-07-15T08:03:22;99875.69;;;29.53;31.31
47726;BME280;33483;48.294;16.388;2022-07-15T08:05:50;99879.75;;;29.13;31.37
47726;BME280;33483;48.294;16.388;2022-07-15T08:08:19;99876.91;;;28.79;32.06
47726;BME280;33483;48.294;16.388;2022-07-15T08:10:49;99867.69;;;28.81;31.79
47726;BME280;33483;48.294;16.388;2022-07-15T08:13:17;99878.94;;;29.63;31.27
47726;BME280;33483;48.294;16.388;2022-07-15T08:15:45;99885.38;;;29.99;30.96
47726;BME280;33483;48.294;16.388;2022-07-15T08:18:15;99875.50;;;29.14;31.51
47726;BME280;33483;48.294;16.388;2022-07-15T08:20:43;99878.38;;;29.84;30.88
47726;BME280;33483;48.294;16.388;2022-07-15T08:23:10;99875.69;;;30.25;30.60
47726;BME280;33483;48.294;16.388;2022-07-15T08:25:38;99875.66;;;30.06;31.24
47726;BME280;33483;48.294;16.388;2022-07-15T08:28:06;99874.78;;;29.13;30.59
47726;BME280;33483;48.294;16.388;2022-07-15T08:30:34;99870.41;;;30.37;30.73
47726;BME280;33483;48.294;16.388;2022-07-15T08:33:03;99881.31;;;30.43;30.72
47726;BME280;33483;48.294;16.388;2022-07-15T08:35:30;99880.81;;;30.29;29.78
47726;BME280;33483;48.294;16.388;2022-07-15T08:38:06;99882.16;;;30.45;29.44
47726;BME280;33483;48.294;16.388;2022-07-15T08:40:38;99883.16;;;30.54;30.17
47726;BME280;33483;48.294;16.388;2022-07-15T08:43:10;99873.00;;;30.70;29.33
47726;BME280;33483;48.294;16.388;2022-07-15T08:45:40;99874.91;;;31.25;29.63
47726;BME280;33483;48.294;16.388;2022-07-15T08:48:12;99874.34;;;30.48;29.70
47726;BME280;33483;48.294;16.388;2022-07-15T08:50:41;99886.03;;;30.34;30.43
47726;BME280;33483;48.294;16.388;2022-07-15T08:53:09;99865.06;;;30.28;28.75
47726;BME280;33483;48.294;16.388;2022-07-15T08:55:36;99872.16;;;30.85;29.27
47726;BME280;33483;48.294;16.388;2022-07-15T08:58:03;99868.81;;;30.93;29.05
47726;BME280;33483;48.294;16.388;2022-07-15T09:00:31;99863.94;;;31.17;30.09
47726;BME280;33483;48.294;16.388;2022-07-15T09:02:59;99863.06;;;31.79;28.76
47726;BME280;33483;48.294;16.388;2022-07-15T09:05:34;99869.81;;;31.88;28.15
47726;BME280;33483;48.294;16.388;2022-07-15T09:08:04;99864.44;;;31.55;28.46
47726;BME280;33483;48.294;16.388;2022-07-15T09:10:52;99849.88;;;31.47;28.18
47726;BME280;33483;48.294;16.388;2022-07-15T09:15:53;99868.44;;;30.61;28.59
47726;BME280;33483;48.294;16.388;2022-07-15T09:18:35;99872.69;;;30.80;28.51
47726;BME280;33483;48.294;16.388;2022-07-15T09:21:14;99866.53;;;30.11;28.49
47726;BME280;33483;48.294;16.388;2022-07-15T09:23:44;99859.66;;;29.99;28.60
47726;BME280;33483;48.294;16.388;2022-07-15T09:28:53;99866.59;;;30.50;28.77
47726;BME280;33483;48.294;16.388;2022-07-15T09:34:18;99855.41;;;30.00;29.41
47726;BME280;33483;48.294;16.388;2022-07-15T09:36:48;99848.97;;;29.81;29.72
47726;BME280;33483;48.294;16.388;2022-07-15T09:39:21;99851.44;;;29.71;29.84
47726;BME280;33483;48.294;16.388;2022-07-15T09:41:49;99847.19;;;30.10;29.60
47726;BME280;33483;48.294;16.388;2022-07-15T09:44:19;99837.88;;;29.90;30.79
47726;BME280;33483;48.294;16.388;2022-07-15T09:54:27;99832.38;;;29.23;30.17
47726;BME280;33483;48.294;16.388;2022-07-15T09:57:04;99840.31;;;28.92;30.71
47726;BME280;33483;48.294;16.388;2022-07-15T09:59:32;99836.81;;;28.93;30.22
47726;BME280;33483;48.294;16.388;2022-07-15T10:02:08;99840.28;;;29.60;30.68
47726;BME280;33483;48.294;16.388;2022-07-15T10:04:36;99842.63;;;30.03;30.23
47726;BME280;33483;48.294;16.388;2022-07-15T10:07:07;99839.72;;;29.46;30.03
47726;BME280;33483;48.294;16.388;2022-07-15T10:09:55;99852.59;;;29.29;30.12
47726;BME280;33483;48.294;16.388;2022-07-15T10:12:40;99844.94;;;29.16;30.42
47726;BME280;33483;48.294;16.388;2022-07-15T10:15:40;99847.72;;;29.49;31.10
47726;BME280;33483;48.294;16.388;2022-07-15T10:18:42;99846.13;;;30.38;29.61
47726;BME280;33483;48.294;16.388;2022-07-15T10:21:24;99842.09;;;30.65;30.71
47726;BME280;33483;48.294;16.388;2022-07-15T10:27:09;99838.81;;;30.33;29.67
47726;BME280;33483;48.294;16.388;2022-07-15T10:29:40;99845.25;;;29.59;30.36
47726;BME280;33483;48.294;16.388;2022-07-15T10:32:08;99845.31;;;29.09;31.15
47726;BME280;33483;48.294;16.388;2022-07-15T10:34:42;99836.28;;;29.14;31.31
47726;BME280;33483;48.294;16.388;2022-07-15T10:37:11;99844.28;;;29.18;30.85
47726;BME280;33483;48.294;16.388;2022-07-15T10:39:57;99846.16;;;29.46;30.28
47726;BME280;33483;48.294;16.388;2022-07-15T10:42:59;99833.66;;;29.73;29.83
47726;BME280;33483;48.294;16.388;2022-07-15T10:45:30;99837.53;;;28.94;30.65
47726;BME280;33483;48.294;16.388;2022-07-15T10:48:27;99838.22;;;29.45;29.89
47726;BME280;33483;48.294;16.388;2022-07-15T10:50:57;99830.22;;;29.76;30.88
47726;BME280;33483;48.294;16.388;2022-07-15T10:53:25;99841.63;;;29.59;30.48
47726;BME280;33483;48.294;16.388;2022-07-15T10:56:49;99840.47;;;29.29;30.42
47726;BME280;33483;48.294;16.388;2022-07-15T10:59:20;99833.16;;;28.57;31.25
47726;BME280;33483;48.294;16.388;2022-07-15T11:04:37;99826.44;;;28.35;31.39
47726;BME280;33483;48.294;16.388;2022-07-15T11:12:11;99830.22;;;27.77;32.74
47726;BME280;33483;48.294;16.388;2022-07-15T11:20:10;99822.28;;;28.05;32.67
47726;BME280;33483;48.294;16.388;2022-07-15T11:22:42;99821.19;;;28.78;33.17
47726;BME280;33483;48.294;16.388;2022-07-15T11:25:31;99818.22;;;28.10;33.07
47726;BME280;33483;48.294;16.388;2022-07-15T11:33:03;99816.03;;;26.77;34.56
47726;BME280;33483;48.294;16.388;2022-07-15T11:35:42;99814.78;;;26.80;34.58
47726;BME280;33483;48.294;16.388;2022-07-15T11:38:10;99818.72;;;27.02;35.83
47726;BME280;33483;48.294;16.388;2022-07-15T11:40:43;99824.63;;;26.92;34.71
47726;BME280;33483;48.294;16.388;2022-07-15T11:43:29;99818.59;;;26.71;35.82
47726;BME280;33483;48.294;16.388;2022-07-15T11:46:16;99822.16;;;26.57;35.38
47726;BME280;33483;48.294;16.388;2022-07-15T11:48:44;99825.94;;;26.62;34.88
47726;BME280;33483;48.294;16.388;2022-07-15T11:51:11;99824.56;;;26.63;35.67
47726;BME280;33483;48.294;16.388;2022-07-15T11:53:43;99822.72;;;26.27;35.71
47726;BME280;33483;48.294;16.388;2022-07-15T11:56:12;99820.50;;;26.25;36.08
47726;BME280;33483;48.294;16.388;2022-07-15T11:58:46;99820.56;;;26.82;35.48
47726;BME280;33483;48.294;16.388;2022-07-15T12:01:20;99819.31;;;26.85;34.82
47726;BME280;33483;48.294;16.388;2022-07-15T12:03:49;99817.00;;;26.67;34.75
47726;BME280;33483;48.294;16.388;2022-07-15T12:06:26;99810.91;;;26.05;35.18
47726;BME280;33483;48.294;16.388;2022-07-15T12:09:01;99830.28;;;26.49;34.79
47726;BME280;33483;48.294;16.388;2022-07-15T12:11:37;99818.06;;;26.60;34.51
47726;BME280;33483;48.294;16.388;2022-07-15T12:14:09;99829.88;;;26.69;34.26
47726;BME280;33483;48.294;16.388;2022-07-15T12:16:46;99823.44;;;26.54;34.42
47726;BME280;33483;48.294;16.388;2022-07-15T12:21:46;99829.41;;;26.88;34.61
47726;BME280;33483;48.294;16.388;2022-07-15T12:24:21;99822.56;;;26.65;33.54
47726;BME280;33483;48.294;16.388;2022-07-15T12:29:21;99823.88;;;27.05;34.56
47726;BME280;33483;48.294;16.388;2022-07-15T12:32:09;99809.97;;;26.98;34.08
47726;BME280;33483;48.294;16.388;2022-07-15T12:34:56;99802.47;;;27.04;34.50
47726;BME280;33483;48.294;16.388;2022-07-15T12:37:48;99808.38;;;27.08;33.37
47726;BME280;33483;48.294;16.388;2022-07-15T12:40:23;99815.78;;;27.29;35.87
47726;BME280;33483;48.294;16.388;2022-07-15T12:42:52;99811.59;;;27.30;33.43
47726;BME280;33483;48.294;16.388;2022-07-15T12:45:35;99801.81;;;27.19;33.08
47726;BME280;33483;48.294;16.388;2022-07-15T12:48:11;99787.31;;;27.00;34.38
47726;BME280;33483;48.294;16.388;2022-07-15T12:53:24;99787.84;;;27.25;33.26
47726;BME280;33483;48.294;16.388;2022-07-15T12:55:57;99794.81;;;27.22;33.23
47726;BME280;33483;48.294;16.388;2022-07-15T12:58:27;99803.22;;;27.05;33.37
47726;BME280;33483;48.294;16.388;2022-07-15T13:01:13;99799.63;;;27.04;33.98
47726;BME280;33483;48.294;16.388;2022-07-15T13:03:44;99793.56;;;26.96;33.43
47726;BME280;33483;48.294;16.388;2022-07-15T13:06:13;99776.28;;;26.92;33.95
47726;BME280;33483;48.294;16.388;2022-07-15T13:08:42;99798.22;;;26.90;34.02
47726;BME280;33483;48.294;16.388;2022-07-15T13:11:10;99794.16;;;26.52;33.27
47726;BME280;33483;48.294;16.388;2022-07-15T13:13:39;99793.22;;;26.47;33.55
47726;BME280;33483;48.294;16.388;2022-07-15T13:16:11;99795.31;;;26.33;33.53
47726;BME280;33483;48.294;16.388;2022-07-15T13:18:40;99792.72;;;26.24;34.47
47726;BME280;33483;48.294;16.388;2022-07-15T13:21:08;99784.91;;;26.11;35.68
47726;BME280;33483;48.294;16.388;2022-07-15T13:23:35;99785.13;;;26.15;33.76
47726;BME280;33483;48.294;16.388;2022-07-15T13:26:03;99790.06;;;26.14;33.54
47726;BME280;33483;48.294;16.388;2022-07-15T13:28:30;99789.53;;;26.31;34.33
47726;BME280;33483;48.294;16.388;2022-07-15T13:31:00;99797.75;;;26.39;33.85
47726;BME280;33483;48.294;16.388;2022-07-15T13:33:27;99790.69;;;26.53;34.32
47726;BME280;33483;48.294;16.388;2022-07-15T13:35:54;99798.69;;;26.43;33.58
47726;BME280;33483;48.294;16.388;2022-07-15T13:38:24;99783.44;;;26.37;34.04
47726;BME280;33483;48.294;16.388;2022-07-15T13:40:54;99786.28;;;26.23;33.96
47726;BME280;33483;48.294;16.388;2022-07-15T13:43:21;99785.81;;;26.56;34.67
47726;BME280;33483;48.294;16.388;2022-07-15T13:45:48;99783.72;;;26.56;34.51
47726;BME280;33483;48.294;16.388;2022-07-15T13:48:15;99800.16;;;26.72;34.57
47726;BME280;33483;48.294;16.388;2022-07-15T13:50:42;99793.09;;;26.73;32.58